Time;durP1;ratioP1;P1;durP2;ratioP2;P2;SDS_P1;SDS_P2;PMS_P1;PMS_P2;Temp;Humidity;BMP_temperature;BMP_pressure;BME280_temperature;BME280_humidity;BME280_pressure;Samples;Min_cycle;Max_cycle;Signal;HPM_P1;HPM_P2
2023/12/05 00:02:01;;;;;;;7.82;6.90;;;6.50;99.90;;;;;;5034953;28;20094;-81
2023/12/05 00:04:28;;;;;;;8.32;7.38;;;6.50;99.90;;;;;;5050259;28;20132;-79
2023/12/05 00:06:56;;;;;;;7.63;6.32;;;6.40;99.90;;;;;;5034544;28;20131;-82
2023/12/05 00:09:25;;;;;;;7.85;6.70;;;6.50;99.90;;;;;;5014385;28;20064;-84
2023/12/05 00:11:52;;;;;;;8.55;7.63;;;6.50;99.90;;;;;;5017874;28;20582;-84
2023/12/05 00:14:20;;;;;;;8.27;7.40;;;6.50;99.90;;;;;;5018413;28;20057;-79
2023/12/05 00:16:47;;;;;;;7.63;6.82;;;6.40;99.90;;;;;;5018070;28;20064;-83
2023/12/05 00:19:13;;;;;;;7.80;7.00;;;6.50;99.90;;;;;;5034753;28;20049;-81
2023/12/05 00:21:40;;;;;;;8.50;7.25;;;6.50;99.90;;;;;;5035129;28;20056;-86
2023/12/05 00:24:07;;;;;;;10.23;8.77;;;6.50;99.90;;;;;;5031641;28;20048;-80
2023/12/05 00:26:35;;;;;;;7.78;6.90;;;6.40;99.90;;;;;;5030638;28;20078;-80
2023/12/05 00:29:04;;;;;;;7.90;6.93;;;6.50;1.00;;;;;;5033373;28;20060;-80
2023/12/05 00:31:31;;;;;;;8.05;7.03;;;6.40;1.00;;;;;;5052611;28;20067;-87
2023/12/05 00:33:57;;;;;;;7.15;6.25;;;6.40;1.00;;;;;;5018315;28;20118;-80
2023/12/05 00:36:25;;;;;;;7.50;6.63;;;6.40;1.00;;;;;;5035085;28;20108;-87
2023/12/05 00:38:51;;;;;;;7.05;6.28;;;6.40;1.00;;;;;;5005460;28;20061;-81
2023/12/05 00:41:20;;;;;;;7.18;6.47;;;6.40;1.00;;;;;;4972852;28;20096;-89
2023/12/05 00:43:47;;;;;;;6.32;5.72;;;6.40;27.80;;;;;;4972679;28;20065;-80
2023/12/05 00:46:14;;;;;;;7.18;6.47;;;6.30;72.70;;;;;;4981118;28;20081;-82
2023/12/05 00:48:41;;;;;;;7.65;6.85;;;6.30;1.00;;;;;;4990267;28;20057;-82
2023/12/05 00:51:09;;;;;;;7.72;6.57;;;6.30;99.90;;;;;;4994162;28;20046;-85
2023/12/05 00:53:36;;;;;;;7.45;6.65;;;6.30;99.90;;;;;;4992822;28;20137;-86
2023/12/05 00:56:03;;;;;;;7.85;6.65;;;6.30;99.90;;;;;;4991540;28;20136;-82
2023/12/05 00:58:30;;;;;;;6.45;5.57;;;6.20;99.90;;;;;;5009217;28;20053;-81
2023/12/05 01:00:57;;;;;;;4.75;4.18;;;6.20;99.90;;;;;;4992555;28;20046;-85
2023/12/05 01:03:26;;;;;;;6.90;5.93;;;6.30;99.90;;;;;;5005934;28;20133;-81
2023/12/05 01:05:53;;;;;;;5.07;4.57;;;6.30;99.90;;;;;;5006019;28;20056;-85
2023/12/05 01:08:21;;;;;;;6.38;5.55;;;6.30;99.90;;;;;;5024161;28;20068;-82
2023/12/05 01:10:48;;;;;;;6.18;5.10;;;6.30;99.90;;;;;;5023651;28;20060;-79
2023/12/05 01:13:15;;;;;;;6.22;4.80;;;6.20;99.90;;;;;;5027432;28;20072;-88
2023/12/05 01:15:42;;;;;;;5.68;4.40;;;6.20;99.90;;;;;;5011812;28;20052;-86
2023/12/05 01:18:08;;;;;;;6.00;5.40;;;6.30;1.00;;;;;;4992486;28;20092;-80
2023/12/05 01:20:35;;;;;;;7.18;5.50;;;6.20;99.90;;;;;;4991700;28;20050;-79
2023/12/05 01:23:02;;;;;;;5.30;4.80;;;6.20;1.00;;;;;;5008464;28;20485;-86
2023/12/05 01:25:29;;;;;;;5.00;4.32;;;6.30;1.00;;;;;;4991180;28;20097;-81
2023/12/05 01:27:56;;;;;;;5.25;4.65;;;6.30;1.00;;;;;;5007359;28;20405;-78
2023/12/05 01:30:24;;;;;;;4.25;3.85;;;6.30;1.00;;;;;;4992414;28;20053;-80
2023/12/05 01:32:51;;;;;;;5.10;4.40;;;6.20;1.00;;;;;;5008653;28;20058;-80
2023/12/05 01:35:18;;;;;;;5.75;3.90;;;6.30;1.00;;;;;;5008102;28;20065;-80
2023/12/05 01:37:45;;;;;;;4.45;3.53;;;6.30;1.00;;;;;;5007636;28;20057;-78
2023/12/05 01:40:12;;;;;;;4.97;4.30;;;6.30;1.00;;;;;;5042134;28;20496;-84
2023/12/05 01:42:39;;;;;;;4.20;3.72;;;6.30;1.00;;;;;;5030099;28;20091;-80
2023/12/05 01:45:08;;;;;;;3.83;3.38;;;6.30;1.00;;;;;;5030416;28;20155;-79
2023/12/05 01:47:36;;;;;;;4.53;4.13;;;6.30;1.00;;;;;;5028449;28;20041;-81
2023/12/05 01:50:04;;;;;;;3.90;3.30;;;6.30;1.00;;;;;;5026939;28;20053;-81
2023/12/05 01:52:31;;;;;;;3.78;3.30;;;6.30;1.00;;;;;;5044038;28;20144;-86
2023/12/05 01:54:58;;;;;;;3.95;3.17;;;6.20;1.00;;;;;;5026762;28;20053;-79
2023/12/05 01:57:25;;;;;;;4.13;3.58;;;6.20;1.00;;;;;;5046456;28;20045;-87
2023/12/05 01:59:52;;;;;;;4.15;3.35;;;6.30;1.00;;;;;;5047782;28;20437;-81
2023/12/05 02:05:35;;;;;;;4.03;3.63;;;6.30;1.00;;;;;;5038802;28;20177;-78
2023/12/05 02:08:03;;;;;;;3.97;3.58;;;6.30;1.00;;;;;;5034017;28;20128;-78
2023/12/05 02:10:30;;;;;;;4.50;4.00;;;6.30;1.00;;;;;;5049595;28;20049;-80
2023/12/05 02:12:57;;;;;;;4.68;4.18;;;6.20;1.00;;;;;;5033383;28;20063;-81
2023/12/05 02:15:23;;;;;;;3.30;2.80;;;6.20;1.00;;;;;;5017103;28;20056;-78
2023/12/05 02:18:18;;;;;;;3.97;3.42;;;6.20;28.50;;;;;;5041438;28;20064;-79
2023/12/05 02:21:16;;;;;;;4.22;3.50;;;6.20;1.00;;;;;;5030378;28;20053;-83
2023/12/05 02:24:14;;;;;;;2.90;2.60;;;6.20;5.30;;;;;;5031318;28;20060;-79
2023/12/05 02:27:00;;;;;;;4.00;3.20;;;6.20;33.90;;;;;;5046931;28;20342;-80
2023/12/05 02:29:28;;;;;;;2.78;2.50;;;6.20;1.00;;;;;;4995011;28;20058;-80
2023/12/05 02:31:54;;;;;;;3.42;3.10;;;6.20;36.20;;;;;;5035274;22;20481;-76
2023/12/05 02:34:21;;;;;;;3.80;2.80;;;6.20;74.40;;;;;;5005348;28;20063;-76
2023/12/05 02:36:58;;;;;;;4.07;3.33;;;6.20;67.00;;;;;;5008946;28;20073;-76
2023/12/05 02:39:45;;;;;;;4.85;3.55;;;6.20;55.30;;;;;;5027628;28;20410;-76
2023/12/05 02:42:12;;;;;;;3.60;3.00;;;6.20;35.80;;;;;;5028295;28;20045;-76
2023/12/05 02:44:48;;;;;;;2.97;2.58;;;6.20;98.10;;;;;;5012772;28;20079;-76
2023/12/05 02:47:16;;;;;;;3.30;2.90;;;6.20;99.90;;;;;;5009391;28;20045;-76
2023/12/05 02:49:42;;;;;;;3.00;2.70;;;6.20;91.20;;;;;;4994202;28;20053;-76
2023/12/05 02:52:09;;;;;;;3.75;3.25;;;6.20;99.90;;;;;;5011141;28;20128;-76
2023/12/05 02:54:36;;;;;;;3.50;2.90;;;6.20;77.00;;;;;;5010900;28;20050;-76
2023/12/05 02:57:03;;;;;;;4.05;2.63;;;6.20;99.90;;;;;;5026860;28;20050;-76
2023/12/05 02:59:30;;;;;;;2.50;2.30;;;6.20;99.90;;;;;;5026552;28;20042;-77
2023/12/05 03:01:57;;;;;;;2.80;2.40;;;6.20;99.90;;;;;;4995128;28;20119;-76
2023/12/05 03:04:24;;;;;;;3.45;2.70;;;6.20;99.90;;;;;;5027423;28;20132;-77
2023/12/05 03:06:51;;;;;;;3.53;2.72;;;6.20;99.90;;;;;;5028096;28;20049;-77
2023/12/05 03:09:18;;;;;;;3.95;2.85;;;6.20;77.50;;;;;;5027036;28;20065;-76
2023/12/05 03:11:45;;;;;;;3.50;2.92;;;6.20;99.90;;;;;;4992979;28;20065;-77
2023/12/05 03:14:13;;;;;;;2.80;2.55;;;6.20;99.90;;;;;;5027513;28;20060;-77
2023/12/05 03:16:40;;;;;;;3.67;3.28;;;6.20;99.90;;;;;;5010490;28;20053;-76
2023/12/05 03:19:07;;;;;;;4.55;3.78;;;6.20;99.90;;;;;;5010931;28;20049;-76
2023/12/05 03:21:34;;;;;;;3.85;3.15;;;6.20;99.30;;;;;;4994292;28;20192;-77
2023/12/05 03:24:01;;;;;;;4.25;3.30;;;6.20;99.90;;;;;;5027151;28;20053;-77
2023/12/05 03:26:28;;;;;;;3.85;3.15;;;6.20;99.90;;;;;;5025882;28;20111;-76
2023/12/05 03:28:55;;;;;;;3.40;2.90;;;6.20;99.90;;;;;;5026903;28;20050;-76
2023/12/05 03:31:22;;;;;;;3.20;2.85;;;6.20;99.90;;;;;;4993782;28;20042;-76
2023/12/05 03:33:49;;;;;;;3.40;3.10;;;6.20;99.90;;;;;;5027013;28;20053;-76
2023/12/05 03:36:16;;;;;;;3.90;3.50;;;6.20;99.90;;;;;;5026948;28;20069;-76
2023/12/05 03:38:43;;;;;;;4.00;3.45;;;6.20;99.90;;;;;;5010245;28;20068;-76
2023/12/05 03:41:10;;;;;;;3.88;3.40;;;6.20;99.90;;;;;;4993884;28;20057;-77
2023/12/05 03:43:36;;;;;;;4.03;3.50;;;6.20;99.90;;;;;;5009616;28;20053;-77
2023/12/05 03:46:04;;;;;;;4.03;3.58;;;6.20;99.90;;;;;;5026822;28;20077;-76
2023/12/05 03:48:30;;;;;;;3.58;3.22;;;6.20;99.90;;;;;;5010311;28;20156;-77
2023/12/05 03:50:57;;;;;;;3.70;3.28;;;6.20;99.90;;;;;;5010189;28;20049;-77
2023/12/05 03:53:24;;;;;;;3.65;3.15;;;6.20;99.90;;;;;;5009451;28;20053;-76
2023/12/05 03:55:51;;;;;;;3.08;2.70;;;6.20;99.90;;;;;;4993631;28;20049;-77
2023/12/05 03:58:18;;;;;;;3.00;2.70;;;6.20;99.90;;;;;;5025927;28;20053;-77
2023/12/05 04:00:45;;;;;;;3.47;2.65;;;6.30;99.90;;;;;;5010051;28;20064;-77
2023/12/05 04:03:14;;;;;;;3.42;2.88;;;6.20;99.90;;;;;;5009448;28;20050;-77
2023/12/05 04:05:41;;;;;;;3.05;2.65;;;6.30;99.90;;;;;;5010108;28;20053;-76
2023/12/05 04:08:08;;;;;;;4.80;3.85;;;6.30;99.90;;;;;;5009547;28;20478;-77
2023/12/05 04:10:35;;;;;;;3.10;2.80;;;6.20;99.90;;;;;;5009222;28;20081;-77
2023/12/05 04:13:02;;;;;;;3.95;3.50;;;6.30;99.90;;;;;;5008722;28;20045;-76
2023/12/05 04:15:29;;;;;;;4.13;3.67;;;6.20;99.90;;;;;;5009536;28;20064;-77
2023/12/05 04:17:55;;;;;;;3.85;3.45;;;6.20;99.90;;;;;;5009562;28;20466;-77
2023/12/05 04:20:23;;;;;;;4.20;3.80;;;6.20;99.90;;;;;;5009609;28;20533;-77
2023/12/05 04:22:50;;;;;;;4.45;3.85;;;6.20;99.90;;;;;;5009492;28;20616;-77
2023/12/05 04:25:17;;;;;;;4.47;3.60;;;6.20;99.90;;;;;;5007870;28;20054;-77
2023/12/05 04:27:43;;;;;;;4.38;3.97;;;6.20;99.90;;;;;;5025363;28;20552;-77
2023/12/05 04:30:10;;;;;;;5.40;4.10;;;6.20;99.90;;;;;;5009088;28;20049;-76
2023/12/05 04:32:37;;;;;;;4.72;4.18;;;6.20;99.90;;;;;;5009175;28;20545;-77
2023/12/05 04:35:05;;;;;;;4.25;3.83;;;6.20;99.90;;;;;;4992589;28;20562;-77
2023/12/05 04:37:32;;;;;;;5.10;4.57;;;6.20;99.90;;;;;;5025760;28;20143;-76
2023/12/05 04:39:59;;;;;;;5.32;4.82;;;6.20;99.90;;;;;;5024578;28;20053;-77
2023/12/05 04:42:25;;;;;;;4.50;4.00;;;6.20;99.90;;;;;;5024941;28;20422;-77
2023/12/05 04:44:52;;;;;;;5.22;4.43;;;6.20;99.90;;;;;;5008919;28;20598;-77
2023/12/05 04:47:20;;;;;;;6.40;5.10;;;6.20;99.90;;;;;;5009462;28;20049;-77
2023/12/05 04:49:47;;;;;;;4.97;4.47;;;6.20;99.90;;;;;;5008309;28;20055;-76
2023/12/05 04:52:15;;;;;;;4.53;3.83;;;6.20;99.90;;;;;;5009131;28;20202;-76
2023/12/05 04:54:41;;;;;;;5.55;4.70;;;6.20;99.90;;;;;;5024757;28;20045;-77
2023/12/05 04:57:08;;;;;;;5.15;4.65;;;6.30;99.90;;;;;;5024593;28;20042;-77
2023/12/05 04:59:35;;;;;;;4.80;4.30;;;6.30;99.90;;;;;;5025269;28;20050;-76
2023/12/05 05:02:02;;;;;;;5.32;4.40;;;6.20;99.90;;;;;;5009119;28;20067;-77
2023/12/05 05:04:29;;;;;;;6.03;4.97;;;6.20;99.90;;;;;;5024917;28;20053;-76
2023/12/05 05:06:56;;;;;;;5.32;4.82;;;6.20;99.90;;;;;;5008751;28;20053;-76
2023/12/05 05:09:23;;;;;;;4.93;4.43;;;6.20;99.90;;;;;;4992765;28;20475;-76
2023/12/05 05:11:50;;;;;;;6.70;6.00;;;6.20;99.90;;;;;;5025597;28;20053;-77
2023/12/05 05:14:17;;;;;;;5.65;5.03;;;6.20;99.90;;;;;;5025205;28;20057;-77
2023/12/05 05:16:43;;;;;;;5.40;4.80;;;6.20;99.90;;;;;;5026206;28;20167;-77
2023/12/05 05:19:10;;;;;;;5.70;5.10;;;6.20;99.90;;;;;;5025569;28;20056;-77
2023/12/05 05:21:37;;;;;;;6.53;5.55;;;6.20;99.90;;;;;;5024227;28;20046;-77
2023/12/05 05:24:04;;;;;;;6.00;5.30;;;6.20;99.90;;;;;;5026214;28;20115;-77
2023/12/05 05:26:31;;;;;;;5.53;4.95;;;6.20;99.90;;;;;;5023963;28;20081;-76
2023/12/05 05:28:58;;;;;;;6.68;5.97;;;6.20;99.90;;;;;;5026516;28;20053;-76
2023/12/05 05:31:25;;;;;;;6.10;5.50;;;6.20;98.30;;;;;;5024141;28;20291;-76
2023/12/05 05:33:52;;;;;;;4.90;4.38;;;6.20;99.90;;;;;;5008547;28;20053;-77
2023/12/05 05:36:19;;;;;;;4.85;4.35;;;6.30;99.90;;;;;;5008351;28;20076;-75
2023/12/05 05:38:46;;;;;;;6.22;5.63;;;6.20;99.90;;;;;;5008828;28;20045;-76
2023/12/05 05:41:13;;;;;;;6.75;5.53;;;6.20;74.70;;;;;;5007731;28;20467;-75
2023/12/05 05:43:40;;;;;;;4.90;4.40;;;6.20;99.90;;;;;;5023622;28;20057;-75
2023/12/05 05:46:08;;;;;;;6.10;5.50;;;6.20;99.90;;;;;;5008556;28;20127;-75
2023/12/05 05:48:35;;;;;;;6.85;5.88;;;6.20;99.90;;;;;;4982789;28;20057;-76
2023/12/05 05:51:02;;;;;;;6.43;5.63;;;6.20;49.90;;;;;;5002142;28;20050;-75
2023/12/05 05:53:29;;;;;;;6.07;5.47;;;6.20;99.90;;;;;;4989788;28;20446;-76
2023/12/05 05:55:59;;;;;;;6.55;5.85;;;6.20;99.90;;;;;;5021771;28;20119;-75
2023/12/05 05:58:26;;;;;;;5.03;4.53;;;6.20;99.90;;;;;;5005691;28;20053;-75
2023/12/05 06:00:53;;;;;;;5.57;4.97;;;6.30;99.90;;;;;;5006692;28;20065;-76
2023/12/05 06:03:20;;;;;;;5.75;4.78;;;6.20;97.50;;;;;;5001694;28;20071;-75
2023/12/05 06:05:47;;;;;;;5.38;4.80;;;6.30;99.90;;;;;;4987855;28;20111;-75
2023/12/05 06:08:15;;;;;;;5.63;5.03;;;6.30;99.90;;;;;;5021753;28;20572;-75
2023/12/05 06:10:42;;;;;;;5.13;4.63;;;6.30;99.90;;;;;;5035286;28;20088;-76
2023/12/05 06:13:08;;;;;;;5.00;4.40;;;6.30;69.60;;;;;;5011155;28;20148;-75
2023/12/05 06:15:35;;;;;;;4.63;4.13;;;6.30;92.80;;;;;;5017978;28;20095;-75
2023/12/05 06:18:03;;;;;;;5.10;4.60;;;6.30;62.00;;;;;;5020478;28;20049;-75
2023/12/05 06:20:30;;;;;;;4.82;4.35;;;6.30;92.60;;;;;;4991515;28;20057;-75
2023/12/05 06:22:57;;;;;;;4.85;4.35;;;6.30;19.30;;;;;;5026660;28;20054;-75
2023/12/05 06:25:24;;;;;;;6.00;5.40;;;6.30;1.00;;;;;;5020747;28;20458;-75
2023/12/05 06:27:51;;;;;;;4.65;4.18;;;6.30;1.00;;;;;;5020265;28;20099;-75
2023/12/05 06:30:18;;;;;;;5.25;4.75;;;6.30;46.80;;;;;;5023297;28;20144;-75
2023/12/05 06:32:53;;;;;;;6.00;5.40;;;6.20;1.00;;;;;;5042964;28;20506;-75
2023/12/05 06:35:20;;;;;;;5.43;4.78;;;6.20;1.00;;;;;;5018720;28;20070;-75
2023/12/05 06:37:46;;;;;;;5.35;4.85;;;6.30;1.00;;;;;;5011920;28;20608;-74
2023/12/05 06:40:13;;;;;;;4.40;4.00;;;6.30;1.00;;;;;;5033500;28;20064;-75
2023/12/05 06:42:40;;;;;;;5.47;4.45;;;6.20;1.00;;;;;;4997485;28;20049;-75
2023/12/05 06:45:08;;;;;;;4.03;3.63;;;6.30;1.00;;;;;;5010384;28;20054;-76
2023/12/05 06:47:38;;;;;;;5.35;4.85;;;6.30;1.00;;;;;;5012068;28;20065;-76
2023/12/05 06:50:10;;;;;;;4.45;3.97;;;6.20;1.00;;;;;;5012806;28;20150;-76
2023/12/05 06:52:39;;;;;;;5.43;4.88;;;6.20;1.00;;;;;;5030581;28;20045;-77
2023/12/05 06:55:10;;;;;;;5.43;4.65;;;6.20;1.00;;;;;;5025371;28;20095;-75
2023/12/05 06:57:37;;;;;;;6.13;4.97;;;6.20;1.00;;;;;;5013249;28;20603;-76
2023/12/05 07:00:04;;;;;;;5.82;4.95;;;6.20;1.00;;;;;;5017775;28;20139;-75
2023/12/05 07:02:32;;;;;;;3.97;3.58;;;6.20;1.00;;;;;;5047598;28;20051;-75
2023/12/05 07:05:02;;;;;;;5.57;4.68;;;6.20;1.00;;;;;;5019132;28;20426;-76
2023/12/05 07:07:30;;;;;;;6.72;6.03;;;6.20;1.00;;;;;;5025578;28;20132;-76
2023/12/05 07:09:57;;;;;;;5.35;4.30;;;6.20;99.90;;;;;;5024272;28;20530;-75
2023/12/05 07:12:24;;;;;;;6.43;5.75;;;6.20;1.00;;;;;;5019897;28;20056;-75
2023/12/05 07:14:51;;;;;;;6.07;5.47;;;6.20;99.90;;;;;;5028575;28;20094;-75
2023/12/05 07:17:18;;;;;;;5.53;4.95;;;6.20;1.00;;;;;;5034477;28;20442;-71
2023/12/05 07:19:45;;;;;;;6.22;5.60;;;6.20;1.00;;;;;;5027506;28;20045;-76
2023/12/05 07:22:12;;;;;;;5.75;5.10;;;6.20;99.90;;;;;;5028933;28;20059;-76
2023/12/05 07:24:39;;;;;;;5.20;4.68;;;6.20;1.00;;;;;;5029163;28;20075;-75
2023/12/05 07:27:07;;;;;;;5.43;4.85;;;6.20;1.00;;;;;;5012722;28;20600;-76
2023/12/05 07:29:34;;;;;;;5.28;4.60;;;6.20;1.00;;;;;;5003048;28;20045;-76
2023/12/05 07:32:01;;;;;;;4.95;4.45;;;6.20;1.00;;;;;;5032396;28;20057;-76
2023/12/05 07:34:28;;;;;;;4.72;4.07;;;6.20;1.00;;;;;;5044579;28;20049;-77
2023/12/05 07:36:55;;;;;;;4.70;4.15;;;6.20;1.00;;;;;;5027067;28;20045;-75
2023/12/05 07:39:25;;;;;;;4.85;4.35;;;6.20;99.90;;;;;;5029766;28;20064;-75
2023/12/05 07:41:52;;;;;;;5.20;4.60;;;6.20;99.90;;;;;;5044962;28;20045;-76
2023/12/05 07:44:19;;;;;;;5.20;4.70;;;6.20;99.90;;;;;;5011776;28;20103;-76
2023/12/05 07:46:46;;;;;;;5.28;4.78;;;6.20;99.90;;;;;;5026001;28;20528;-75
2023/12/05 07:49:12;;;;;;;4.63;4.13;;;6.20;99.90;;;;;;4999322;28;20469;-76
2023/12/05 07:51:39;;;;;;;6.22;4.97;;;6.20;99.90;;;;;;5021520;28;20049;-76
2023/12/05 07:54:06;;;;;;;6.43;4.95;;;6.20;99.90;;;;;;5012876;28;20596;-75
2023/12/05 07:56:33;;;;;;;7.10;5.28;;;6.20;97.00;;;;;;5011405;28;20048;-76
2023/12/05 07:59:00;;;;;;;4.85;4.35;;;6.20;1.00;;;;;;5012980;28;20055;-76
2023/12/05 08:01:27;;;;;;;4.97;4.47;;;6.20;99.90;;;;;;5045725;28;20075;-76
2023/12/05 08:03:56;;;;;;;5.20;4.40;;;6.20;99.90;;;;;;5025671;28;20082;-76
2023/12/05 08:06:24;;;;;;;4.45;3.88;;;6.20;61.50;;;;;;5009427;28;20049;-76
2023/12/05 08:08:51;;;;;;;4.53;3.72;;;6.20;1.00;;;;;;5027864;28;20052;-76
2023/12/05 08:11:19;;;;;;;6.47;5.80;;;6.20;1.00;;;;;;5010554;28;20049;-76
2023/12/05 08:13:47;;;;;;;5.75;4.93;;;6.20;99.90;;;;;;4997440;28;20040;-76
2023/12/05 08:16:14;;;;;;;5.28;4.50;;;6.20;99.90;;;;;;5012702;28;20045;-76
2023/12/05 08:18:41;;;;;;;4.55;3.50;;;6.20;99.90;;;;;;5046627;28;20068;-76
2023/12/05 08:21:08;;;;;;;5.93;4.88;;;6.20;99.90;;;;;;5009323;28;20053;-76
2023/12/05 08:23:35;;;;;;;4.82;4.05;;;6.20;81.80;;;;;;5010131;28;20102;-76
2023/12/05 08:26:02;;;;;;;4.63;4.03;;;6.20;1.00;;;;;;5008841;28;20510;-76
2023/12/05 08:28:29;;;;;;;5.78;4.65;;;6.20;41.70;;;;;;5024514;28;20093;-77
2023/12/05 08:30:56;;;;;;;7.38;5.05;;;6.20;1.00;;;;;;5024997;28;20053;-76
2023/12/05 08:33:23;;;;;;;4.95;4.40;;;6.20;1.00;;;;;;5029980;28;20036;-77
2023/12/05 08:35:50;;;;;;;6.07;4.63;;;6.20;99.90;;;;;;5009462;28;20111;-76
2023/12/05 08:38:17;;;;;;;5.88;4.70;;;6.20;1.00;;;;;;5009162;28;20115;-76
2023/12/05 08:40:44;;;;;;;6.80;4.93;;;6.20;99.90;;;;;;5042414;28;20073;-75
2023/12/05 08:43:11;;;;;;;5.05;4.55;;;6.10;99.90;;;;;;5041422;28;20512;-76
2023/12/05 08:45:38;;;;;;;6.15;5.55;;;6.20;99.90;;;;;;5028073;28;20075;-75
2023/12/05 08:48:05;;;;;;;5.45;4.88;;;6.20;99.90;;;;;;5028392;28;20399;-77
2023/12/05 08:50:33;;;;;;;5.22;4.72;;;6.20;1.00;;;;;;5017383;28;20053;-76
2023/12/05 08:53:00;;;;;;;6.35;4.70;;;6.20;99.90;;;;;;4995844;28;20057;-76
2023/12/05 08:55:27;;;;;;;5.20;4.68;;;6.20;99.90;;;;;;5010929;28;20514;-76
2023/12/05 08:57:53;;;;;;;5.57;4.82;;;6.20;99.90;;;;;;4994579;28;20132;-77
2023/12/05 09:00:20;;;;;;;5.32;3.97;;;6.20;99.90;;;;;;5012616;28;20136;-76
2023/12/05 09:02:47;;;;;;;8.63;6.07;;;6.20;1.00;;;;;;5011366;28;20156;-72
2023/12/05 09:05:14;;;;;;;5.90;4.93;;;6.20;99.90;;;;;;5044564;28;20486;-75
2023/12/05 09:07:41;;;;;;;6.75;4.90;;;6.20;99.90;;;;;;5035629;28;20041;-75
2023/12/05 09:10:08;;;;;;;5.32;4.35;;;6.30;99.90;;;;;;5037695;28;20064;-76
2023/12/05 09:12:35;;;;;;;3.80;3.40;;;6.30;1.00;;;;;;5002221;28;20053;-75
2023/12/05 09:15:02;;;;;;;4.57;3.85;;;6.40;99.90;;;;;;5015063;28;20053;-76
2023/12/05 09:17:31;;;;;;;4.13;3.65;;;6.40;99.90;;;;;;5025870;28;20049;-75
2023/12/05 09:19:58;;;;;;;6.38;4.18;;;6.40;99.90;;;;;;5009640;28;20059;-75
2023/12/05 09:22:25;;;;;;;5.80;4.07;;;6.40;1.00;;;;;;5025987;28;20049;-75
2023/12/05 09:24:52;;;;;;;4.93;3.85;;;6.40;99.90;;;;;;5021916;28;20113;-76
2023/12/05 09:27:19;;;;;;;3.85;3.13;;;6.40;99.90;;;;;;5023359;28;20048;-75
2023/12/05 09:29:46;;;;;;;4.03;3.47;;;6.40;99.90;;;;;;5047774;28;20831;-75
2023/12/05 09:32:17;;;;;;;5.22;4.43;;;6.40;26.40;;;;;;5015002;28;20079;-76
2023/12/05 09:34:45;;;;;;;4.82;4.03;;;6.40;1.00;;;;;;5010876;28;20161;-75
2023/12/05 09:37:12;;;;;;;5.60;4.85;;;6.40;1.00;;;;;;5035184;28;20406;-75
2023/12/05 09:39:40;;;;;;;6.07;5.30;;;6.30;1.00;;;;;;4991406;28;20053;-75
2023/12/05 09:42:10;;;;;;;5.45;4.60;;;6.30;1.00;;;;;;5016514;28;20099;-75
2023/12/05 09:44:38;;;;;;;5.18;3.95;;;6.30;99.90;;;;;;5002616;28;20049;-75
2023/12/05 09:47:05;;;;;;;6.70;4.75;;;6.30;20.10;;;;;;5011002;28;20064;-76
2023/12/05 09:49:32;;;;;;;5.25;4.18;;;6.30;99.90;;;;;;4999396;28;20054;-77
2023/12/05 09:52:00;;;;;;;5.20;4.32;;;6.30;99.90;;;;;;5004963;28;20096;-77
2023/12/05 09:54:26;;;;;;;5.05;4.00;;;6.30;1.00;;;;;;4990354;28;20053;-75
2023/12/05 09:56:55;;;;;;;5.25;4.07;;;6.40;66.80;;;;;;5019216;28;20081;-75
2023/12/05 09:59:22;;;;;;;4.90;4.35;;;6.30;99.90;;;;;;5007166;28;20146;-75
2023/12/05 10:01:49;;;;;;;4.70;3.80;;;6.30;99.90;;;;;;5007777;28;20046;-76
2023/12/05 10:04:17;;;;;;;5.25;4.38;;;6.40;1.00;;;;;;5023863;28;20053;-76
2023/12/05 10:06:45;;;;;;;4.88;4.38;;;6.40;99.90;;;;;;5022375;28;20061;-76
2023/12/05 10:09:12;;;;;;;6.25;4.47;;;6.30;1.00;;;;;;5004755;28;20059;-76
2023/12/05 10:11:39;;;;;;;7.15;4.95;;;6.30;1.00;;;;;;5003216;28;20064;-75
2023/12/05 10:14:06;;;;;;;5.00;4.00;;;6.30;99.90;;;;;;5007518;28;20041;-75
2023/12/05 10:16:33;;;;;;;7.07;3.88;;;6.30;99.90;;;;;;5007577;28;20053;-75
2023/12/05 10:19:00;;;;;;;4.32;3.80;;;6.30;92.40;;;;;;4991541;28;20050;-74
2023/12/05 10:21:27;;;;;;;4.28;3.50;;;6.30;1.00;;;;;;5008945;28;20528;-74
2023/12/05 10:23:55;;;;;;;4.05;3.53;;;6.30;99.90;;;;;;5009077;28;20451;-75
2023/12/05 10:26:21;;;;;;;6.05;4.43;;;6.40;1.00;;;;;;4991069;28;20054;-75
2023/12/05 10:28:50;;;;;;;4.78;3.83;;;6.40;99.90;;;;;;5025643;28;20049;-75
2023/12/05 10:31:18;;;;;;;4.32;3.58;;;6.40;99.90;;;;;;5022166;28;20049;-75
2023/12/05 10:33:49;;;;;;;3.38;2.78;;;6.40;1.00;;;;;;5021501;28;20053;-75
2023/12/05 10:36:17;;;;;;;4.80;3.50;;;6.50;1.00;;;;;;4991687;28;20136;-74
2023/12/05 10:38:44;;;;;;;6.30;4.82;;;6.50;1.00;;;;;;5027179;28;20049;-75
2023/12/05 10:41:11;;;;;;;5.95;3.92;;;6.50;99.90;;;;;;5008771;28;20479;-75
2023/12/05 10:43:38;;;;;;;7.53;4.78;;;6.50;99.90;;;;;;5027060;28;20077;-75
2023/12/05 10:46:05;;;;;;;6.10;4.60;;;6.50;99.90;;;;;;5011088;28;20111;-75
2023/12/05 10:48:33;;;;;;;5.72;4.90;;;6.60;99.90;;;;;;5044262;28;20050;-75
2023/12/05 10:51:00;;;;;;;5.18;4.15;;;6.60;99.90;;;;;;5026630;28;20053;-75
2023/12/05 10:53:27;;;;;;;5.28;3.80;;;6.60;1.00;;;;;;5010618;28;20396;-75
2023/12/05 10:55:54;;;;;;;5.18;4.10;;;6.70;99.90;;;;;;5010850;28;20057;-75
2023/12/05 10:58:20;;;;;;;5.53;3.72;;;6.70;99.90;;;;;;5026519;28;20053;-75
2023/12/05 11:00:48;;;;;;;5.47;3.97;;;6.80;99.90;;;;;;5026066;28;20050;-75
2023/12/05 11:03:15;;;;;;;3.97;3.53;;;6.80;1.00;;;;;;5026681;28;20057;-75
2023/12/05 11:05:42;;;;;;;7.43;3.70;;;6.80;14.50;;;;;;5010658;28;20052;-75
2023/12/05 11:08:09;;;;;;;7.35;5.68;;;6.70;99.90;;;;;;5010281;28;20064;-75
2023/12/05 11:10:36;;;;;;;5.47;4.55;;;6.70;99.90;;;;;;5009922;28;20161;-75
2023/12/05 11:13:03;;;;;;;5.82;4.82;;;6.60;99.90;;;;;;5026000;28;20111;-75
2023/12/05 11:15:34;;;;;;;7.35;4.55;;;6.60;1.00;;;;;;5026857;28;20061;-75
2023/12/05 11:18:10;;;;;;;5.45;4.22;;;6.60;7.90;;;;;;4994789;28;20084;-74
2023/12/05 11:20:37;;;;;;;5.97;3.83;;;6.60;1.00;;;;;;5011024;28;20060;-75
2023/12/05 11:23:15;;;;;;;6.32;4.25;;;6.60;99.90;;;;;;5026257;28;20627;-75
2023/12/05 11:25:50;;;;;;;5.72;3.90;;;6.70;99.90;;;;;;5007139;28;20050;-75
2023/12/05 11:28:26;;;;;;;5.40;4.05;;;6.60;1.00;;;;;;5022730;28;20049;-75
2023/12/05 11:30:58;;;;;;;7.93;4.00;;;6.60;19.50;;;;;;5025704;28;20622;-76
2023/12/05 11:33:31;;;;;;;5.82;4.13;;;6.60;1.00;;;;;;5031360;28;20052;-76
2023/12/05 11:36:11;;;;;;;4.35;3.63;;;6.60;1.00;;;;;;5026057;28;20693;-76
2023/12/05 11:38:38;;;;;;;4.78;3.40;;;6.60;99.90;;;;;;5012505;28;20057;-76
2023/12/05 11:41:12;;;;;;;4.50;3.53;;;6.60;99.90;;;;;;5008891;28;20399;-76
2023/12/05 11:43:45;;;;;;;6.07;3.38;;;6.60;99.90;;;;;;5023429;28;20136;-76
2023/12/05 11:46:12;;;;;;;4.77;3.67;;;6.60;80.80;;;;;;5012590;28;20678;-76
2023/12/05 11:48:39;;;;;;;4.53;3.53;;;6.70;1.00;;;;;;4996387;28;20331;-76
2023/12/05 11:51:07;;;;;;;3.70;3.20;;;6.70;1.00;;;;;;4997672;28;20048;-76
2023/12/05 11:53:33;;;;;;;4.75;3.90;;;6.70;99.90;;;;;;5031184;28;20115;-76
2023/12/05 11:56:00;;;;;;;4.53;3.65;;;6.70;42.50;;;;;;5028543;28;20049;-76
2023/12/05 11:58:31;;;;;;;4.28;3.45;;;6.80;57.00;;;;;;5026203;28;20041;-77
2023/12/05 12:01:07;;;;;;;4.68;3.30;;;6.80;4.70;;;;;;5009606;28;20068;-76
2023/12/05 12:04:00;;;;;;;3.72;2.90;;;6.70;1.00;;;;;;5018777;28;20079;-77
2023/12/05 12:06:27;;;;;;;4.78;4.03;;;6.80;1.00;;;;;;5005945;28;20041;-77
2023/12/05 12:08:56;;;;;;;5.13;3.50;;;6.80;99.90;;;;;;4993291;28;20140;-77
2023/12/05 12:11:23;;;;;;;5.78;3.83;;;6.80;99.90;;;;;;5008734;28;20449;-76
2023/12/05 12:13:50;;;;;;;4.28;3.33;;;6.80;99.90;;;;;;5011481;28;20048;-76
2023/12/05 12:16:18;;;;;;;5.20;3.35;;;6.80;1.00;;;;;;5009000;28;20051;-77
2023/12/05 12:19:03;;;;;;;5.38;3.50;;;6.90;99.90;;;;;;5000062;28;20118;-77
2023/12/05 12:21:49;;;;;;;4.10;2.78;;;6.90;99.90;;;;;;5027364;28;20047;-76
2023/12/05 12:24:23;;;;;;;3.95;3.33;;;7.00;99.90;;;;;;5008610;28;20478;-77
2023/12/05 12:26:58;;;;;;;5.22;3.28;;;7.00;99.90;;;;;;4992199;28;20049;-77
2023/12/05 12:29:25;;;;;;;7.60;3.75;;;7.00;99.90;;;;;;5024168;28;20133;-77
2023/12/05 12:32:07;;;;;;;5.95;2.75;;;6.90;99.90;;;;;;5021740;28;20060;-76
2023/12/05 12:34:34;;;;;;;4.82;2.97;;;7.00;99.90;;;;;;5010260;28;20041;-76
2023/12/05 12:37:02;;;;;;;5.72;2.70;;;7.00;99.90;;;;;;4991965;28;20506;-76
2023/12/05 12:39:43;;;;;;;5.00;3.00;;;7.00;99.90;;;;;;4996360;28;20045;-75
2023/12/05 12:42:11;;;;;;;4.93;2.97;;;7.00;99.90;;;;;;5024237;28;20073;-76
2023/12/05 12:44:38;;;;;;;5.68;3.17;;;7.00;71.30;;;;;;5010660;28;20454;-75
2023/12/05 12:47:06;;;;;;;3.92;3.00;;;7.00;73.60;;;;;;5008711;28;20135;-75
2023/12/05 12:49:36;;;;;;;4.55;3.13;;;7.10;1.00;;;;;;5019120;28;20397;-74
2023/12/05 12:52:04;;;;;;;7.18;3.70;;;7.10;11.30;;;;;;5041202;28;20053;-76
2023/12/05 12:54:31;;;;;;;5.03;3.47;;;7.00;99.90;;;;;;5027055;28;20438;-75
2023/12/05 12:56:58;;;;;;;4.07;3.13;;;7.10;13.40;;;;;;5023386;28;20561;-76
2023/12/05 12:59:25;;;;;;;5.05;3.30;;;7.10;1.00;;;;;;5044541;28;20098;-75
2023/12/05 13:01:51;;;;;;;4.63;3.17;;;7.20;74.70;;;;;;5026885;28;20094;-76
2023/12/05 13:04:18;;;;;;;4.88;2.70;;;7.20;1.00;;;;;;5040891;28;20131;-75
2023/12/05 13:06:46;;;;;;;3.95;2.75;;;7.20;31.70;;;;;;5023869;28;20083;-75
2023/12/05 13:09:19;;;;;;;4.00;2.78;;;7.20;1.00;;;;;;5024594;28;20057;-75